sensor_id;sensor_type;location;lat;lon;timestamp;temperature;humidity
569;DHT22;269;48.884;9.192;2022-11-23T00:01:19;4.90;99.90
569;DHT22;269;48.884;9.192;2022-11-23T00:03:47;4.90;99.90
569;DHT22;269;48.884;9.192;2022-11-23T00:06:17;4.90;99.90
569;DHT22;269;48.884;9.192;2022-11-23T00:08:44;4.90;99.90
569;DHT22;269;48.884;9.192;2022-11-23T00:11:12;4.90;99.90
569;DHT22;269;48.884;9.192;2022-11-23T00:13:39;4.80;99.90
569;DHT22;269;48.884;9.192;2022-11-23T00:16:07;4.80;99.90
569;DHT22;269;48.884;9.192;2022-11-23T00:18:36;4.80;99.90
569;DHT22;269;48.884;9.192;2022-11-23T00:21:06;4.90;99.90
569;DHT22;269;48.884;9.192;2022-11-23T00:23:35;4.90;99.90
569;DHT22;269;48.884;9.192;2022-11-23T00:26:03;4.50;99.90
569;DHT22;269;48.884;9.192;2022-11-23T00:28:31;4.80;99.90
569;DHT22;269;48.884;9.192;2022-11-23T00:31:00;4.80;99.90
569;DHT22;269;48.884;9.192;2022-11-23T00:33:26;4.80;99.90
569;DHT22;269;48.884;9.192;2022-11-23T00:36:03;4.80;99.90
569;DHT22;269;48.884;9.192;2022-11-23T00:38:30;4.70;99.90
569;DHT22;269;48.884;9.192;2022-11-23T00:41:00;4.70;99.90
569;DHT22;269;48.884;9.192;2022-11-23T00:43:27;4.70;99.90
569;DHT22;269;48.884;9.192;2022-11-23T00:46:08;4.80;99.90
569;DHT22;269;48.884;9.192;2022-11-23T00:48:38;4.80;99.90
569;DHT22;269;48.884;9.192;2022-11-23T00:51:08;4.90;99.90
569;DHT22;269;48.884;9.192;2022-11-23T00:53:35;4.90;99.90
569;DHT22;269;48.884;9.192;2022-11-23T00:56:03;5.00;99.90
569;DHT22;269;48.884;9.192;2022-11-23T00:58:30;5.00;99.90
569;DHT22;269;48.884;9.192;2022-11-23T01:01:02;5.00;99.90
569;DHT22;269;48.884;9.192;2022-11-23T01:03:30;5.10;99.90
569;DHT22;269;48.884;9.192;2022-11-23T01:06:02;5.10;99.90
569;DHT22;269;48.884;9.192;2022-11-23T01:08:31;5.20;99.90
569;DHT22;269;48.884;9.192;2022-11-23T01:11:00;5.20;99.90
569;DHT22;269;48.884;9.192;2022-11-23T01:13:28;5.20;99.90
569;DHT22;269;48.884;9.192;2022-11-23T01:15:57;5.20;99.90
569;DHT22;269;48.884;9.192;2022-11-23T01:18:25;5.30;99.90
569;DHT22;269;48.884;9.192;2022-11-23T01:20:52;5.30;99.90
569;DHT22;269;48.884;9.192;2022-11-23T01:23:19;5.30;99.90
569;DHT22;269;48.884;9.192;2022-11-23T01:25:47;5.30;99.90
569;DHT22;269;48.884;9.192;2022-11-23T01:28:14;5.30;99.90
569;DHT22;269;48.884;9.192;2022-11-23T01:30:41;5.40;99.90
569;DHT22;269;48.884;9.192;2022-11-23T01:33:09;5.40;99.90
569;DHT22;269;48.884;9.192;2022-11-23T01:35:36;5.40;99.90
569;DHT22;269;48.884;9.192;2022-11-23T01:38:03;5.40;99.90
569;DHT22;269;48.884;9.192;2022-11-23T01:40:30;5.40;99.90
569;DHT22;269;48.884;9.192;2022-11-23T01:43:13;5.40;99.90
569;DHT22;269;48.884;9.192;2022-11-23T01:45:42;5.30;99.90
569;DHT22;269;48.884;9.192;2022-11-23T01:48:15;5.30;99.90
569;DHT22;269;48.884;9.192;2022-11-23T01:50:46;5.20;99.90
569;DHT22;269;48.884;9.192;2022-11-23T01:53:14;5.20;99.90
569;DHT22;269;48.884;9.192;2022-11-23T01:55:44;5.20;99.90
569;DHT22;269;48.884;9.192;2022-11-23T01:58:18;5.20;99.90
569;DHT22;269;48.884;9.192;2022-11-23T02:00:46;5.20;99.90
569;DHT22;269;48.884;9.192;2022-11-23T02:03:14;5.20;99.90
569;DHT22;269;48.884;9.192;2022-11-23T02:05:45;5.10;99.90
569;DHT22;269;48.884;9.192;2022-11-23T02:08:15;5.10;99.90
569;DHT22;269;48.884;9.192;2022-11-23T02:10:43;5.10;99.90
569;DHT22;269;48.884;9.192;2022-11-23T02:13:11;5.20;99.90
569;DHT22;269;48.884;9.192;2022-11-23T02:15:41;5.10;99.90
569;DHT22;269;48.884;9.192;2022-11-23T02:18:12;5.20;99.90
569;DHT22;269;48.884;9.192;2022-11-23T02:20:43;5.20;99.90
569;DHT22;269;48.884;9.192;2022-11-23T02:23:19;5.20;99.90
569;DHT22;269;48.884;9.192;2022-11-23T02:26:00;5.20;99.90
569;DHT22;269;48.884;9.192;2022-11-23T02:28:31;5.20;99.90
569;DHT22;269;48.884;9.192;2022-11-23T02:31:01;5.20;99.90
569;DHT22;269;48.884;9.192;2022-11-23T02:33:28;5.20;99.90
569;DHT22;269;48.884;9.192;2022-11-23T02:35:57;5.20;99.90
569;DHT22;269;48.884;9.192;2022-11-23T02:38:29;5.10;99.90
569;DHT22;269;48.884;9.192;2022-11-23T02:40:58;5.20;99.90
569;DHT22;269;48.884;9.192;2022-11-23T02:43:26;5.00;99.90
569;DHT22;269;48.884;9.192;2022-11-23T02:45:55;5.00;99.90
569;DHT22;269;48.884;9.192;2022-11-23T02:48:22;5.00;99.90
569;DHT22;269;48.884;9.192;2022-11-23T02:50:50;5.00;99.90
569;DHT22;269;48.884;9.192;2022-11-23T02:53:18;5.00;99.90
569;DHT22;269;48.884;9.192;2022-11-23T02:55:45;4.90;99.90
569;DHT22;269;48.884;9.192;2022-11-23T02:58:14;4.90;99.90
569;DHT22;269;48.884;9.192;2022-11-23T03:00:41;4.90;99.90
569;DHT22;269;48.884;9.192;2022-11-23T03:03:08;4.90;99.90
569;DHT22;269;48.884;9.192;2022-11-23T03:05:35;4.90;99.90
569;DHT22;269;48.884;9.192;2022-11-23T03:08:02;4.90;99.90
569;DHT22;269;48.884;9.192;2022-11-23T03:10:29;4.90;99.90
569;DHT22;269;48.884;9.192;2022-11-23T03:12:58;4.80;99.90
569;DHT22;269;48.884;9.192;2022-11-23T03:15:26;4.80;99.90
569;DHT22;269;48.884;9.192;2022-11-23T03:17:56;4.70;99.90
569;DHT22;269;48.884;9.192;2022-11-23T03:20:23;4.70;99.90
569;DHT22;269;48.884;9.192;2022-11-23T03:22:50;4.70;99.90
569;DHT22;269;48.884;9.192;2022-11-23T03:25:18;4.70;99.90
569;DHT22;269;48.884;9.192;2022-11-23T03:27:45;4.70;99.90
569;DHT22;269;48.884;9.192;2022-11-23T03:30:12;4.70;99.90
569;DHT22;269;48.884;9.192;2022-11-23T03:32:42;4.70;99.90
569;DHT22;269;48.884;9.192;2022-11-23T03:35:09;4.70;99.90
569;DHT22;269;48.884;9.192;2022-11-23T03:37:36;4.70;99.90
569;DHT22;269;48.884;9.192;2022-11-23T03:40:05;4.70;99.90
569;DHT22;269;48.884;9.192;2022-11-23T03:42:32;4.70;99.90
569;DHT22;269;48.884;9.192;2022-11-23T03:44:59;4.70;99.90
569;DHT22;269;48.884;9.192;2022-11-23T03:47:26;4.60;99.90
569;DHT22;269;48.884;9.192;2022-11-23T03:49:56;4.50;99.90
569;DHT22;269;48.884;9.192;2022-11-23T03:52:23;4.50;99.90
569;DHT22;269;48.884;9.192;2022-11-23T03:54:50;4.50;99.90
569;DHT22;269;48.884;9.192;2022-11-23T03:57:18;4.50;99.90
569;DHT22;269;48.884;9.192;2022-11-23T03:59:45;4.50;99.90
569;DHT22;269;48.884;9.192;2022-11-23T04:02:12;4.50;99.90
569;DHT22;269;48.884;9.192;2022-11-23T04:04:39;4.50;99.90
569;DHT22;269;48.884;9.192;2022-11-23T04:07:08;4.50;99.90
569;DHT22;269;48.884;9.192;2022-11-23T04:09:35;4.50;99.90
569;DHT22;269;48.884;9.192;2022-11-23T04:12:02;4.50;99.90
569;DHT22;269;48.884;9.192;2022-11-23T04:14:29;4.50;99.90
569;DHT22;269;48.884;9.192;2022-11-23T04:16:56;4.50;99.90
569;DHT22;269;48.884;9.192;2022-11-23T04:19:25;4.50;99.90
569;DHT22;269;48.884;9.192;2022-11-23T04:21:53;4.20;99.90
569;DHT22;269;48.884;9.192;2022-11-23T04:24:21;4.50;99.90
569;DHT22;269;48.884;9.192;2022-11-23T04:26:48;4.50;99.90
569;DHT22;269;48.884;9.192;2022-11-23T04:29:15;4.50;99.90
569;DHT22;269;48.884;9.192;2022-11-23T04:31:43;4.50;99.90
569;DHT22;269;48.884;9.192;2022-11-23T04:34:10;4.60;99.90
569;DHT22;269;48.884;9.192;2022-11-23T04:36:37;4.60;99.90
569;DHT22;269;48.884;9.192;2022-11-23T04:39:04;4.60;99.90
569;DHT22;269;48.884;9.192;2022-11-23T04:41:33;4.60;99.90
569;DHT22;269;48.884;9.192;2022-11-23T04:44:00;4.60;99.90
569;DHT22;269;48.884;9.192;2022-11-23T04:46:27;4.60;99.90
569;DHT22;269;48.884;9.192;2022-11-23T04:48:54;4.70;99.90
569;DHT22;269;48.884;9.192;2022-11-23T04:51:21;4.70;99.90
569;DHT22;269;48.884;9.192;2022-11-23T04:53:48;4.70;99.90
569;DHT22;269;48.884;9.192;2022-11-23T04:56:16;4.60;99.90
569;DHT22;269;48.884;9.192;2022-11-23T04:58:44;4.70;99.90
569;DHT22;269;48.884;9.192;2022-11-23T05:01:11;4.60;99.90
569;DHT22;269;48.884;9.192;2022-11-23T05:03:39;4.70;99.90
569;DHT22;269;48.884;9.192;2022-11-23T05:06:08;4.70;99.90
569;DHT22;269;48.884;9.192;2022-11-23T05:08:36;4.70;99.90
569;DHT22;269;48.884;9.192;2022-11-23T05:11:04;4.60;99.90
569;DHT22;269;48.884;9.192;2022-11-23T05:13:30;4.50;99.90
569;DHT22;269;48.884;9.192;2022-11-23T05:16:00;4.50;99.90
569;DHT22;269;48.884;9.192;2022-11-23T05:18:28;4.50;99.90
569;DHT22;269;48.884;9.192;2022-11-23T05:20:55;4.50;99.90
569;DHT22;269;48.884;9.192;2022-11-23T05:23:22;4.50;99.90
569;DHT22;269;48.884;9.192;2022-11-23T05:25:49;4.50;99.90
569;DHT22;269;48.884;9.192;2022-11-23T05:28:20;4.50;99.90
569;DHT22;269;48.884;9.192;2022-11-23T05:30:48;4.50;99.90
569;DHT22;269;48.884;9.192;2022-11-23T05:33:17;4.40;99.90
569;DHT22;269;48.884;9.192;2022-11-23T05:35:44;4.40;99.90
569;DHT22;269;48.884;9.192;2022-11-23T05:38:11;4.40;99.90
569;DHT22;269;48.884;9.192;2022-11-23T05:40:45;4.40;99.90
569;DHT22;269;48.884;9.192;2022-11-23T05:43:12;4.50;99.90
569;DHT22;269;48.884;9.192;2022-11-23T05:45:39;4.40;99.90
569;DHT22;269;48.884;9.192;2022-11-23T05:48:09;4.60;99.90
569;DHT22;269;48.884;9.192;2022-11-23T05:50:37;4.60;99.90
569;DHT22;269;48.884;9.192;2022-11-23T05:53:04;4.60;99.90
569;DHT22;269;48.884;9.192;2022-11-23T05:55:32;4.70;99.90
569;DHT22;269;48.884;9.192;2022-11-23T05:58:00;4.70;99.90
569;DHT22;269;48.884;9.192;2022-11-23T06:00:28;4.70;99.90
569;DHT22;269;48.884;9.192;2022-11-23T06:02:58;4.70;99.90
569;DHT22;269;48.884;9.192;2022-11-23T06:05:26;4.60;99.90
569;DHT22;269;48.884;9.192;2022-11-23T06:07:55;4.70;99.90
569;DHT22;269;48.884;9.192;2022-11-23T06:10:22;4.70;99.90
569;DHT22;269;48.884;9.192;2022-11-23T06:12:51;4.70;99.90
569;DHT22;269;48.884;9.192;2022-11-23T06:15:18;4.70;99.90
569;DHT22;269;48.884;9.192;2022-11-23T06:17:45;4.70;99.90
569;DHT22;269;48.884;9.192;2022-11-23T06:20:12;4.60;99.90
569;DHT22;269;48.884;9.192;2022-11-23T06:22:39;4.60;99.90
569;DHT22;269;48.884;9.192;2022-11-23T06:25:08;4.70;99.90
569;DHT22;269;48.884;9.192;2022-11-23T06:27:36;4.70;99.90
569;DHT22;269;48.884;9.192;2022-11-23T06:30:04;4.60;99.90
569;DHT22;269;48.884;9.192;2022-11-23T06:32:32;4.60;99.90
569;DHT22;269;48.884;9.192;2022-11-23T06:34:59;4.60;99.90
569;DHT22;269;48.884;9.192;2022-11-23T06:37:28;4.60;99.90
569;DHT22;269;48.884;9.192;2022-11-23T06:39:55;4.70;99.90
569;DHT22;269;48.884;9.192;2022-11-23T06:42:24;4.70;99.90
569;DHT22;269;48.884;9.192;2022-11-23T06:44:51;4.60;99.90
569;DHT22;269;48.884;9.192;2022-11-23T06:47:18;4.70;99.90
569;DHT22;269;48.884;9.192;2022-11-23T06:49:46;4.70;99.90
569;DHT22;269;48.884;9.192;2022-11-23T06:52:13;4.70;99.90
569;DHT22;269;48.884;9.192;2022-11-23T06:54:40;4.70;99.90
569;DHT22;269;48.884;9.192;2022-11-23T06:57:09;4.70;99.90
569;DHT22;269;48.884;9.192;2022-11-23T06:59:41;4.70;99.90
569;DHT22;269;48.884;9.192;2022-11-23T07:02:10;4.70;99.90
569;DHT22;269;48.884;9.192;2022-11-23T07:04:38;4.80;99.90
569;DHT22;269;48.884;9.192;2022-11-23T07:07:06;4.80;99.90
569;DHT22;269;48.884;9.192;2022-11-23T07:09:33;4.80;99.90
569;DHT22;269;48.884;9.192;2022-11-23T07:12:01;4.90;99.90
569;DHT22;269;48.884;9.192;2022-11-23T07:14:29;4.90;99.90
569;DHT22;269;48.884;9.192;2022-11-23T07:16:57;4.80;99.90
569;DHT22;269;48.884;9.192;2022-11-23T07:19:24;4.90;99.90
569;DHT22;269;48.884;9.192;2022-11-23T07:21:52;4.90;99.90
569;DHT22;269;48.884;9.192;2022-11-23T07:24:19;4.90;99.90
569;DHT22;269;48.884;9.192;2022-11-23T07:26:47;5.00;99.90
569;DHT22;269;48.884;9.192;2022-11-23T07:29:15;5.00;99.90
569;DHT22;269;48.884;9.192;2022-11-23T07:31:42;5.00;99.90
569;DHT22;269;48.884;9.192;2022-11-23T07:34:11;5.00;99.90
569;DHT22;269;48.884;9.192;2022-11-23T07:36:38;5.00;99.90
569;DHT22;269;48.884;9.192;2022-11-23T07:39:05;5.00;99.90
569;DHT22;269;48.884;9.192;2022-11-23T07:41:33;5.00;99.90
569;DHT22;269;48.884;9.192;2022-11-23T07:44:00;5.00;99.90
569;DHT22;269;48.884;9.192;2022-11-23T07:46:27;5.00;99.90
569;DHT22;269;48.884;9.192;2022-11-23T07:48:54;5.10;99.90
569;DHT22;269;48.884;9.192;2022-11-23T07:51:28;5.10;99.90
569;DHT22;269;48.884;9.192;2022-11-23T07:53:55;5.20;99.90
569;DHT22;269;48.884;9.192;2022-11-23T07:56:22;5.40;99.90
569;DHT22;269;48.884;9.192;2022-11-23T07:58:49;5.50;99.90
569;DHT22;269;48.884;9.192;2022-11-23T08:01:17;5.60;99.90
569;DHT22;269;48.884;9.192;2022-11-23T08:03:46;5.60;99.90
569;DHT22;269;48.884;9.192;2022-11-23T08:06:15;5.70;99.90
569;DHT22;269;48.884;9.192;2022-11-23T08:08:44;5.80;99.90
569;DHT22;269;48.884;9.192;2022-11-23T08:11:11;5.90;99.90
569;DHT22;269;48.884;9.192;2022-11-23T08:13:42;6.00;99.90
569;DHT22;269;48.884;9.192;2022-11-23T08:16:09;6.10;99.90
569;DHT22;269;48.884;9.192;2022-11-23T08:18:36;6.20;99.90
569;DHT22;269;48.884;9.192;2022-11-23T08:21:04;6.40;99.90
569;DHT22;269;48.884;9.192;2022-11-23T08:23:31;6.80;99.90
569;DHT22;269;48.884;9.192;2022-11-23T08:26:01;7.40;99.90
569;DHT22;269;48.884;9.192;2022-11-23T08:28:29;7.80;99.90
569;DHT22;269;48.884;9.192;2022-11-23T08:30:56;7.80;99.90
569;DHT22;269;48.884;9.192;2022-11-23T08:33:24;7.90;99.90
569;DHT22;269;48.884;9.192;2022-11-23T08:35:53;7.90;99.90
569;DHT22;269;48.884;9.192;2022-11-23T08:38:20;8.00;99.90
569;DHT22;269;48.884;9.192;2022-11-23T08:40:47;8.00;99.90
569;DHT22;269;48.884;9.192;2022-11-23T08:43:18;7.90;99.90
569;DHT22;269;48.884;9.192;2022-11-23T08:45:45;8.10;99.90
569;DHT22;269;48.884;9.192;2022-11-23T08:48:12;8.30;99.90
569;DHT22;269;48.884;9.192;2022-11-23T08:50:39;8.70;99.90
569;DHT22;269;48.884;9.192;2022-11-23T08:53:06;9.30;99.90
569;DHT22;269;48.884;9.192;2022-11-23T08:55:33;9.80;99.90
569;DHT22;269;48.884;9.192;2022-11-23T08:58:01;10.20;99.90
569;DHT22;269;48.884;9.192;2022-11-23T09:00:29;10.10;99.90
569;DHT22;269;48.884;9.192;2022-11-23T09:02:56;10.30;99.90
569;DHT22;269;48.884;9.192;2022-11-23T09:05:25;10.50;99.90
569;DHT22;269;48.884;9.192;2022-11-23T09:07:53;10.60;99.90
569;DHT22;269;48.884;9.192;2022-11-23T09:10:20;10.80;99.90
569;DHT22;269;48.884;9.192;2022-11-23T09:12:47;10.90;99.90
569;DHT22;269;48.884;9.192;2022-11-23T09:15:14;11.30;99.90
569;DHT22;269;48.884;9.192;2022-11-23T09:17:44;11.50;99.90
569;DHT22;269;48.884;9.192;2022-11-23T09:20:11;11.70;99.90
569;DHT22;269;48.884;9.192;2022-11-23T09:22:38;11.90;99.90
569;DHT22;269;48.884;9.192;2022-11-23T09:25:06;12.10;99.90
569;DHT22;269;48.884;9.192;2022-11-23T09:27:35;12.20;99.90
569;DHT22;269;48.884;9.192;2022-11-23T09:30:02;12.10;99.90
569;DHT22;269;48.884;9.192;2022-11-23T09:32:31;12.00;99.90
569;DHT22;269;48.884;9.192;2022-11-23T09:35:00;11.90;99.90
569;DHT22;269;48.884;9.192;2022-11-23T09:37:27;11.90;99.90
569;DHT22;269;48.884;9.192;2022-11-23T09:39:54;11.90;99.90
569;DHT22;269;48.884;9.192;2022-11-23T09:42:33;11.90;99.90
569;DHT22;269;48.884;9.192;2022-11-23T09:45:15;11.50;99.90
569;DHT22;269;48.884;9.192;2022-11-23T09:47:55;11.10;99.90
569;DHT22;269;48.884;9.192;2022-11-23T09:50:34;11.00;99.90
569;DHT22;269;48.884;9.192;2022-11-23T09:53:12;11.30;99.90
569;DHT22;269;48.884;9.192;2022-11-23T09:55:42;11.40;99.90
569;DHT22;269;48.884;9.192;2022-11-23T09:58:13;11.30;99.90
569;DHT22;269;48.884;9.192;2022-11-23T10:00:46;11.40;99.90
569;DHT22;269;48.884;9.192;2022-11-23T10:03:15;11.80;99.90
569;DHT22;269;48.884;9.192;2022-11-23T10:05:54;12.10;99.90
569;DHT22;269;48.884;9.192;2022-11-23T10:08:32;12.50;99.90
569;DHT22;269;48.884;9.192;2022-11-23T10:11:10;12.70;99.90
569;DHT22;269;48.884;9.192;2022-11-23T10:13:52;12.90;99.90
569;DHT22;269;48.884;9.192;2022-11-23T10:16:31;13.00;99.90
569;DHT22;269;48.884;9.192;2022-11-23T10:19:07;13.10;99.90
569;DHT22;269;48.884;9.192;2022-11-23T10:21:45;13.30;99.90
569;DHT22;269;48.884;9.192;2022-11-23T10:24:17;13.70;99.90
569;DHT22;269;48.884;9.192;2022-11-23T10:26:47;13.70;99.90
569;DHT22;269;48.884;9.192;2022-11-23T10:29:28;13.60;99.90
569;DHT22;269;48.884;9.192;2022-11-23T10:31:57;13.50;99.90
569;DHT22;269;48.884;9.192;2022-11-23T10:34:40;13.50;99.90
569;DHT22;269;48.884;9.192;2022-11-23T10:37:12;13.70;99.90
569;DHT22;269;48.884;9.192;2022-11-23T10:39:40;13.70;99.90
569;DHT22;269;48.884;9.192;2022-11-23T10:42:17;13.30;99.90
569;DHT22;269;48.884;9.192;2022-11-23T10:44:48;13.50;99.90
569;DHT22;269;48.884;9.192;2022-11-23T10:47:34;13.50;99.90
569;DHT22;269;48.884;9.192;2022-11-23T10:50:10;13.60;99.90
569;DHT22;269;48.884;9.192;2022-11-23T10:52:53;13.50;99.90
569;DHT22;269;48.884;9.192;2022-11-23T10:55:25;13.30;99.90
569;DHT22;269;48.884;9.192;2022-11-23T10:57:53;13.40;99.90
569;DHT22;269;48.884;9.192;2022-11-23T11:00:23;13.60;99.90
569;DHT22;269;48.884;9.192;2022-11-23T11:02:53;13.70;99.90
569;DHT22;269;48.884;9.192;2022-11-23T11:05:27;14.10;99.90
569;DHT22;269;48.884;9.192;2022-11-23T11:07:57;14.10;99.90
569;DHT22;269;48.884;9.192;2022-11-23T11:10:36;14.00;99.90
569;DHT22;269;48.884;9.192;2022-11-23T11:13:23;13.80;99.90
569;DHT22;269;48.884;9.192;2022-11-23T11:15:55;14.20;99.90
569;DHT22;269;48.884;9.192;2022-11-23T11:18:25;14.20;99.90
569;DHT22;269;48.884;9.192;2022-11-23T11:20:59;14.50;99.90
569;DHT22;269;48.884;9.192;2022-11-23T11:23:29;14.60;99.90
569;DHT22;269;48.884;9.192;2022-11-23T11:26:06;14.60;99.90
569;DHT22;269;48.884;9.192;2022-11-23T11:28:38;14.30;99.90
569;DHT22;269;48.884;9.192;2022-11-23T11:31:29;14.40;99.90
569;DHT22;269;48.884;9.192;2022-11-23T11:34:06;14.60;99.90
569;DHT22;269;48.884;9.192;2022-11-23T11:36:39;14.70;99.90
569;DHT22;269;48.884;9.192;2022-11-23T11:39:13;14.80;99.90
569;DHT22;269;48.884;9.192;2022-11-23T11:41:42;15.00;99.90
569;DHT22;269;48.884;9.192;2022-11-23T11:44:15;15.00;99.90
569;DHT22;269;48.884;9.192;2022-11-23T11:46:47;14.80;99.90
569;DHT22;269;48.884;9.192;2022-11-23T11:49:20;14.60;99.90
569;DHT22;269;48.884;9.192;2022-11-23T11:51:53;14.70;99.90
569;DHT22;269;48.884;9.192;2022-11-23T11:54:25;14.50;99.90
569;DHT22;269;48.884;9.192;2022-11-23T11:56:59;14.60;99.90
569;DHT22;269;48.884;9.192;2022-11-23T11:59:29;14.60;99.90
569;DHT22;269;48.884;9.192;2022-11-23T12:02:03;14.80;99.90
569;DHT22;269;48.884;9.192;2022-11-23T12:04:44;15.00;99.90
569;DHT22;269;48.884;9.192;2022-11-23T12:07:21;15.00;99.90
569;DHT22;269;48.884;9.192;2022-11-23T12:09:56;14.80;99.90
569;DHT22;269;48.884;9.192;2022-11-23T12:12:28;14.70;99.90
569;DHT22;269;48.884;9.192;2022-11-23T12:14:56;14.60;99.90
569;DHT22;269;48.884;9.192;2022-11-23T12:17:44;14.50;99.90
569;DHT22;269;48.884;9.192;2022-11-23T12:20:19;14.30;99.90
569;DHT22;269;48.884;9.192;2022-11-23T12:22:59;14.40;99.90
569;DHT22;269;48.884;9.192;2022-11-23T12:25:32;14.30;99.90
569;DHT22;269;48.884;9.192;2022-11-23T12:28:21;13.90;99.90
569;DHT22;269;48.884;9.192;2022-11-23T12:31:00;13.70;99.90
569;DHT22;269;48.884;9.192;2022-11-23T12:33:49;13.20;99.90
569;DHT22;269;48.884;9.192;2022-11-23T12:36:49;13.10;99.90
569;DHT22;269;48.884;9.192;2022-11-23T12:39:32;13.00;99.90
569;DHT22;269;48.884;9.192;2022-11-23T12:42:08;13.00;99.90
569;DHT22;269;48.884;9.192;2022-11-23T12:44:51;13.00;99.90
569;DHT22;269;48.884;9.192;2022-11-23T12:47:30;12.60;99.90
569;DHT22;269;48.884;9.192;2022-11-23T12:50:05;12.30;99.90
569;DHT22;269;48.884;9.192;2022-11-23T12:53:02;12.30;99.90
569;DHT22;269;48.884;9.192;2022-11-23T12:55:38;12.30;99.90
569;DHT22;269;48.884;9.192;2022-11-23T12:58:16;12.40;99.90
569;DHT22;269;48.884;9.192;2022-11-23T13:00:47;12.50;99.90
569;DHT22;269;48.884;9.192;2022-11-23T13:03:54;12.40;99.90
569;DHT22;269;48.884;9.192;2022-11-23T13:06:50;12.30;99.90
569;DHT22;269;48.884;9.192;2022-11-23T13:09:47;12.20;99.90
569;DHT22;269;48.884;9.192;2022-11-23T13:12:29;12.10;99.90
569;DHT22;269;48.884;9.192;2022-11-23T13:15:17;12.00;99.90
569;DHT22;269;48.884;9.192;2022-11-23T13:17:51;11.80;99.90
569;DHT22;269;48.884;9.192;2022-11-23T13:20:40;11.70;99.90
569;DHT22;269;48.884;9.192;2022-11-23T13:23:12;11.80;99.90
569;DHT22;269;48.884;9.192;2022-11-23T13:25:40;11.90;99.90
569;DHT22;269;48.884;9.192;2022-11-23T13:28:27;11.90;99.90
569;DHT22;269;48.884;9.192;2022-11-23T13:33:50;12.00;99.90
569;DHT22;269;48.884;9.192;2022-11-23T13:36:38;12.10;99.90
569;DHT22;269;48.884;9.192;2022-11-23T13:42:26;11.80;99.90
569;DHT22;269;48.884;9.192;2022-11-23T13:45:25;11.70;99.90
569;DHT22;269;48.884;9.192;2022-11-23T13:48:11;11.60;99.90
569;DHT22;269;48.884;9.192;2022-11-23T13:50:56;11.70;99.90
569;DHT22;269;48.884;9.192;2022-11-23T13:53:28;11.80;99.90
569;DHT22;269;48.884;9.192;2022-11-23T13:56:01;11.80;99.90
569;DHT22;269;48.884;9.192;2022-11-23T13:58:50;12.00;99.90
569;DHT22;269;48.884;9.192;2022-11-23T14:02:00;12.00;99.90
569;DHT22;269;48.884;9.192;2022-11-23T14:04:28;12.00;99.90
569;DHT22;269;48.884;9.192;2022-11-23T14:07:01;11.90;99.90
569;DHT22;269;48.884;9.192;2022-11-23T14:09:34;11.90;99.90
569;DHT22;269;48.884;9.192;2022-11-23T14:12:07;11.80;99.90
569;DHT22;269;48.884;9.192;2022-11-23T14:14:49;11.60;99.90
569;DHT22;269;48.884;9.192;2022-11-23T14:20:35;11.00;99.90
569;DHT22;269;48.884;9.192;2022-11-23T14:23:36;10.70;99.90
569;DHT22;269;48.884;9.192;2022-11-23T14:26:24;10.60;99.90
569;DHT22;269;48.884;9.192;2022-11-23T14:29:15;10.50;99.90
569;DHT22;269;48.884;9.192;2022-11-23T14:31:55;10.40;99.90
569;DHT22;269;48.884;9.192;2022-11-23T14:34:32;10.30;99.90
569;DHT22;269;48.884;9.192;2022-11-23T14:37:09;10.20;99.90
569;DHT22;269;48.884;9.192;2022-11-23T14:40:02;10.10;99.90
569;DHT22;269;48.884;9.192;2022-11-23T14:42:41;10.00;99.90
569;DHT22;269;48.884;9.192;2022-11-23T14:45:13;9.90;99.90
569;DHT22;269;48.884;9.192;2022-11-23T14:47:40;9.90;99.90
569;DHT22;269;48.884;9.192;2022-11-23T14:50:21;9.90;99.90
569;DHT22;269;48.884;9.192;2022-11-23T14:52:51;9.80;99.90
569;DHT22;269;48.884;9.192;2022-11-23T14:55:22;9.80;99.90
569;DHT22;269;48.884;9.192;2022-11-23T14:57:53;9.70;99.90
569;DHT22;269;48.884;9.192;2022-11-23T15:00:29;9.70;99.90
569;DHT22;269;48.884;9.192;2022-11-23T15:03:05;9.60;99.90
569;DHT22;269;48.884;9.192;2022-11-23T15:05:34;9.50;99.90
569;DHT22;269;48.884;9.192;2022-11-23T15:08:08;9.40;99.90
569;DHT22;269;48.884;9.192;2022-11-23T15:10:43;9.40;99.90
569;DHT22;269;48.884;9.192;2022-11-23T15:13:21;9.30;99.90
569;DHT22;269;48.884;9.192;2022-11-23T15:15:50;9.20;99.90
569;DHT22;269;48.884;9.192;2022-11-23T15:18:30;9.20;99.90
569;DHT22;269;48.884;9.192;2022-11-23T15:21:02;9.10;99.90
569;DHT22;269;48.884;9.192;2022-11-23T15:23:35;9.00;99.90
569;DHT22;269;48.884;9.192;2022-11-23T15:26:12;9.00;99.90
569;DHT22;269;48.884;9.192;2022-11-23T15:28:40;8.90;99.90
569;DHT22;269;48.884;9.192;2022-11-23T15:31:26;8.90;99.90
569;DHT22;269;48.884;9.192;2022-11-23T15:33:55;8.80;99.90
569;DHT22;269;48.884;9.192;2022-11-23T15:36:25;8.80;99.90
569;DHT22;269;48.884;9.192;2022-11-23T15:38:56;8.70;99.90
569;DHT22;269;48.884;9.192;2022-11-23T15:41:26;8.70;99.90
569;DHT22;269;48.884;9.192;2022-11-23T15:43:55;8.60;99.90
569;DHT22;269;48.884;9.192;2022-11-23T15:46:23;8.60;99.90
569;DHT22;269;48.884;9.192;2022-11-23T15:48:52;8.50;99.90
569;DHT22;269;48.884;9.192;2022-11-23T15:51:28;8.40;99.90
569;DHT22;269;48.884;9.192;2022-11-23T15:53:57;8.40;99.90
569;DHT22;269;48.884;9.192;2022-11-23T15:56:28;8.40;99.90
569;DHT22;269;48.884;9.192;2022-11-23T15:58:58;8.40;99.90
569;DHT22;269;48.884;9.192;2022-11-23T16:01:26;8.40;99.90
569;DHT22;269;48.884;9.192;2022-11-23T16:03:54;8.30;99.90
569;DHT22;269;48.884;9.192;2022-11-23T16:06:40;8.30;99.90
569;DHT22;269;48.884;9.192;2022-11-23T16:09:35;8.30;99.90
569;DHT22;269;48.884;9.192;2022-11-23T16:12:20;8.40;99.90
569;DHT22;269;48.884;9.192;2022-11-23T16:14:47;8.30;99.90
569;DHT22;269;48.884;9.192;2022-11-23T16:17:17;8.30;99.90
569;DHT22;269;48.884;9.192;2022-11-23T16:19:46;8.30;99.90
569;DHT22;269;48.884;9.192;2022-11-23T16:22:25;8.30;99.90
569;DHT22;269;48.884;9.192;2022-11-23T16:25:00;8.30;99.90
569;DHT22;269;48.884;9.192;2022-11-23T16:27:29;8.30;99.90
569;DHT22;269;48.884;9.192;2022-11-23T16:29:57;8.30;99.90
569;DHT22;269;48.884;9.192;2022-11-23T16:32:27;8.40;99.90
569;DHT22;269;48.884;9.192;2022-11-23T16:34:57;8.40;99.90
569;DHT22;269;48.884;9.192;2022-11-23T16:37:25;8.50;99.90
569;DHT22;269;48.884;9.192;2022-11-23T16:39:53;8.50;99.90
569;DHT22;269;48.884;9.192;2022-11-23T16:42:20;8.50;99.90
569;DHT22;269;48.884;9.192;2022-11-23T16:44:50;8.50;99.90
569;DHT22;269;48.884;9.192;2022-11-23T16:47:22;8.60;99.90
569;DHT22;269;48.884;9.192;2022-11-23T16:49:50;8.60;99.90
569;DHT22;269;48.884;9.192;2022-11-23T16:52:18;8.60;99.90
569;DHT22;269;48.884;9.192;2022-11-23T16:54:45;8.70;99.90
569;DHT22;269;48.884;9.192;2022-11-23T16:57:17;8.70;99.90
569;DHT22;269;48.884;9.192;2022-11-23T16:59:46;8.70;99.90
569;DHT22;269;48.884;9.192;2022-11-23T17:02:15;8.70;99.90
569;DHT22;269;48.884;9.192;2022-11-23T17:04:42;8.70;99.90
569;DHT22;269;48.884;9.192;2022-11-23T17:07:09;8.60;99.90
569;DHT22;269;48.884;9.192;2022-11-23T17:09:36;8.60;99.90
569;DHT22;269;48.884;9.192;2022-11-23T17:12:05;8.50;99.90
569;DHT22;269;48.884;9.192;2022-11-23T17:14:37;8.40;99.90
569;DHT22;269;48.884;9.192;2022-11-23T17:17:09;8.20;99.90
569;DHT22;269;48.884;9.192;2022-11-23T17:19:38;8.20;99.90
569;DHT22;269;48.884;9.192;2022-11-23T17:22:05;8.10;99.90
569;DHT22;269;48.884;9.192;2022-11-23T17:24:32;8.00;99.90